createdAt,value
2018-01-23T00:02:06.239Z,97.31
2018-01-23T00:04:35.608Z,97.58
2018-01-23T00:07:05.364Z,98.04
2018-01-23T00:09:35.231Z,97.75
2018-01-23T00:12:05.017Z,97.82
2018-01-23T00:14:34.778Z,97.77
2018-01-23T00:17:04.854Z,97.48
2018-01-23T00:19:35.034Z,97.26
2018-01-23T00:22:04.584Z,97.33
2018-01-23T00:24:34.325Z,97.36
2018-01-23T00:27:07.130Z,97.45
2018-01-23T00:29:36.445Z,97.10
2018-01-23T00:32:09.910Z,97.17
2018-01-23T00:34:39.266Z,96.86
2018-01-23T00:37:09.174Z,97.12
2018-01-23T00:39:38.769Z,97.41
2018-01-23T00:42:08.154Z,96.92
2018-01-23T00:44:38.111Z,96.89
2018-01-23T00:47:07.508Z,97.11
2018-01-23T00:49:37.090Z,97.66
2018-01-23T00:52:06.724Z,96.74
2018-01-23T00:54:36.130Z,97.13
2018-01-23T00:57:05.678Z,96.56
2018-01-23T00:59:35.638Z,96.66
2018-01-23T01:02:04.953Z,96.89
2018-01-23T01:04:34.494Z,96.92
2018-01-23T01:07:04.198Z,96.53
2018-01-23T01:09:33.599Z,96.58
2018-01-23T01:12:02.969Z,96.42
2018-01-23T01:14:32.513Z,96.33
2018-01-23T01:17:02.310Z,96.24
2018-01-23T01:19:31.658Z,96.06
2018-01-23T01:22:01.266Z,96.32
2018-01-23T01:24:30.825Z,96.00
2018-01-23T01:27:02.465Z,96.04
2018-01-23T01:29:32.713Z,95.75
2018-01-23T01:32:02.970Z,95.40
2018-01-23T01:34:33.293Z,95.82
2018-01-23T01:37:03.578Z,95.78
2018-01-23T01:39:32.914Z,95.40
2018-01-23T01:42:03.086Z,94.73
2018-01-23T01:44:33.366Z,94.86
2018-01-23T01:47:03.186Z,94.69
2018-01-23T01:49:33.101Z,94.89
2018-01-23T01:52:03.544Z,94.99
2018-01-23T01:54:32.874Z,94.83
2018-01-23T01:57:02.514Z,95.12
2018-01-23T01:59:32.889Z,95.11
2018-01-23T02:04:33.426Z,95.40
2018-01-23T02:07:04.130Z,95.46
2018-01-23T02:09:33.468Z,95.50
2018-01-23T02:12:02.884Z,94.72
2018-01-23T02:14:32.503Z,95.46
2018-01-23T02:17:01.934Z,95.90
2018-01-23T02:19:31.725Z,95.92
2018-01-23T02:22:01.590Z,97.00
2018-01-23T02:24:31.450Z,96.74
2018-01-23T02:27:01.130Z,97.44
2018-01-23T02:29:30.583Z,96.58
2018-01-23T02:31:59.910Z,96.50
2018-01-23T02:34:30.003Z,97.11
2018-01-23T02:36:59.776Z,98.07
2018-01-23T02:39:32.299Z,97.61
2018-01-23T02:42:01.632Z,98.39
2018-01-23T02:44:31.311Z,98.62
2018-01-23T02:47:00.976Z,97.83
2018-01-23T02:49:30.606Z,97.24
2018-01-23T02:51:59.929Z,96.55
2018-01-23T02:54:29.961Z,97.79
2018-01-23T02:56:59.322Z,98.01
2018-01-23T02:59:30.306Z,98.25
2018-01-23T03:01:59.642Z,97.95
2018-01-23T03:04:30.390Z,97.42
2018-01-23T03:07:00.326Z,97.79
2018-01-23T03:09:30.165Z,97.08
2018-01-23T03:12:00.189Z,97.45
2018-01-23T03:14:30.742Z,97.29
2018-01-23T03:17:00.113Z,96.95
2018-01-23T03:19:30.269Z,97.18
2018-01-23T03:21:59.841Z,97.33
2018-01-23T03:24:30.390Z,97.12
2018-01-23T03:26:59.685Z,96.84
2018-01-23T03:29:31.021Z,97.09
2018-01-23T03:32:00.425Z,97.24
2018-01-23T03:34:29.979Z,97.10
2018-01-23T03:36:59.985Z,97.33
2018-01-23T03:39:30.649Z,97.88
2018-01-23T03:41:59.938Z,97.65
2018-01-23T03:44:30.579Z,97.80
2018-01-23T03:46:59.897Z,97.33
2018-01-23T03:49:30.357Z,97.23
2018-01-23T03:51:59.948Z,97.20
2018-01-23T03:54:30.546Z,97.08
2018-01-23T03:56:59.839Z,97.73
2018-01-23T03:59:31.169Z,97.77
2018-01-23T04:02:00.940Z,97.06
2018-01-23T04:04:30.426Z,97.47
2018-01-23T04:07:00.030Z,97.55
2018-01-23T04:09:30.270Z,97.18
2018-01-23T04:11:59.673Z,97.44
2018-01-23T04:14:30.670Z,97.62
2018-01-23T04:17:00.046Z,97.93
2018-01-23T04:19:30.872Z,97.85
2018-01-23T04:22:00.525Z,98.37
2018-01-23T04:24:30.159Z,98.47
2018-01-23T04:26:59.450Z,98.32
2018-01-23T04:29:31.145Z,99.15
2018-01-23T04:32:00.438Z,98.04
2018-01-23T04:34:30.269Z,98.26
2018-01-23T04:36:59.702Z,96.82
2018-01-23T04:39:30.603Z,97.49
2018-01-23T04:41:59.914Z,97.23
2018-01-23T04:44:30.117Z,97.24
2018-01-23T04:46:59.477Z,96.88
2018-01-23T04:49:30.185Z,96.21
2018-01-23T04:51:59.875Z,95.52
2018-01-23T04:54:31.089Z,95.53
2018-01-23T04:57:00.385Z,96.29
2018-01-23T04:59:31.010Z,96.09
2018-01-23T05:02:00.370Z,95.77
2018-01-23T05:04:30.362Z,96.65
2018-01-23T05:06:59.950Z,95.59
2018-01-23T05:09:30.510Z,94.97
2018-01-23T05:11:59.802Z,94.91
2018-01-23T05:14:33.972Z,95.49
2018-01-23T05:17:07.580Z,94.86
2018-01-23T05:19:37.275Z,95.55
2018-01-23T05:22:06.555Z,95.00
2018-01-23T05:24:36.672Z,95.75
2018-01-23T05:27:06.297Z,95.05
2018-01-23T05:29:35.726Z,94.92
2018-01-23T05:32:06.680Z,95.77
2018-01-23T05:34:38.291Z,95.84
2018-01-23T05:37:10.010Z,95.75
2018-01-23T05:39:40.913Z,95.17
2018-01-23T05:42:14.514Z,95.91
2018-01-23T05:44:44.840Z,96.24
2018-01-23T05:47:16.213Z,95.43
2018-01-23T05:49:45.962Z,95.25
2018-01-23T05:52:15.581Z,95.29
2018-01-23T05:54:45.262Z,96.41
2018-01-23T05:57:14.613Z,95.61
2018-01-23T05:59:44.262Z,95.71
2018-01-23T06:02:13.953Z,95.87
2018-01-23T06:04:43.390Z,96.10
2018-01-23T06:07:12.716Z,96.23
2018-01-23T06:09:42.503Z,96.67
2018-01-23T06:12:12.411Z,96.43
2018-01-23T06:14:42.123Z,96.40
2018-01-23T06:17:11.779Z,96.19
2018-01-23T06:19:41.418Z,96.03
2018-01-23T06:22:11.594Z,96.63
2018-01-23T06:24:41.393Z,96.61
2018-01-23T06:27:11.570Z,96.16
2018-01-23T06:29:42.154Z,95.98
2018-01-23T06:32:29.168Z,96.57
2018-01-23T06:35:11.551Z,95.75
2018-01-23T06:37:52.345Z,95.00
2018-01-23T06:40:23.741Z,95.55
2018-01-23T06:42:53.953Z,96.23
2018-01-23T06:45:28.486Z,95.16
2018-01-23T06:48:03.232Z,94.86
2018-01-23T06:50:34.572Z,94.98
2018-01-23T06:53:04.062Z,95.79
2018-01-23T06:55:34.896Z,95.88
2018-01-23T06:58:13.187Z,95.52
2018-01-23T07:00:56.926Z,95.77
2018-01-23T07:03:27.131Z,96.31
2018-01-23T07:05:59.297Z,96.78
2018-01-23T07:08:30.143Z,96.13
2018-01-23T07:10:59.582Z,95.89
2018-01-23T07:13:43.801Z,96.26
2018-01-23T07:16:14.490Z,95.41
2018-01-23T07:18:44.501Z,96.01
2018-01-23T07:21:15.561Z,96.08
2018-01-23T07:23:45.022Z,95.47
2018-01-23T07:26:15.215Z,95.17
2018-01-23T07:28:45.555Z,95.56
2018-01-23T07:31:15.556Z,95.29
2018-01-23T07:33:45.148Z,95.69
2018-01-23T07:36:14.521Z,95.75
2018-01-23T07:38:43.950Z,95.50
2018-01-23T07:41:13.633Z,94.98
2018-01-23T07:43:42.938Z,94.46
2018-01-23T07:46:12.326Z,94.42
2018-01-23T07:48:41.651Z,94.62
2018-01-23T07:51:11.010Z,93.82
2018-01-23T07:53:40.304Z,93.70
2018-01-23T07:56:09.609Z,94.28
2018-01-23T07:58:38.917Z,93.89
2018-01-23T08:01:08.195Z,92.89
2018-01-23T08:03:37.874Z,92.63
2018-01-23T08:06:07.167Z,91.76
2018-01-23T08:08:36.739Z,92.18
2018-01-23T08:11:06.299Z,92.46
2018-01-23T08:13:35.798Z,91.53
2018-01-23T08:16:05.162Z,92.17
2018-01-23T08:18:34.809Z,92.85
2018-01-23T08:21:04.378Z,92.41
2018-01-23T08:23:33.829Z,92.34
2018-01-23T08:26:03.829Z,92.18
2018-01-23T08:28:33.233Z,92.54
2018-01-23T08:31:03.845Z,92.53
2018-01-23T08:33:33.671Z,93.25
2018-01-23T08:36:03.298Z,92.74
2018-01-23T08:38:32.922Z,92.41
2018-01-23T08:41:02.483Z,92.45
2018-01-23T08:43:32.563Z,91.83
2018-01-23T08:46:02.026Z,90.72
2018-01-23T08:48:35.049Z,91.77
2018-01-23T08:51:04.522Z,92.90
2018-01-23T08:53:36.454Z,91.44
2018-01-23T08:56:06.090Z,91.75
2018-01-23T08:58:35.680Z,91.27
2018-01-23T09:01:07.870Z,90.65
2018-01-23T09:03:38.366Z,91.32
2018-01-23T09:06:08.475Z,90.49
2018-01-23T09:08:43.023Z,89.62
2018-01-23T09:11:12.618Z,89.83
2018-01-23T09:13:41.978Z,90.36
2018-01-23T09:16:11.329Z,89.93
2018-01-23T09:18:40.793Z,89.94
2018-01-23T09:21:10.057Z,89.92
2018-01-23T09:23:39.486Z,90.53
2018-01-23T09:26:09.094Z,90.15
2018-01-23T09:28:38.490Z,88.92
2018-01-23T09:31:07.849Z,89.48
2018-01-23T09:33:37.638Z,88.08
2018-01-23T09:36:07.146Z,86.91
2018-01-23T09:38:36.957Z,87.39
2018-01-23T09:41:06.430Z,86.05
2018-01-23T09:43:36.269Z,86.57
2018-01-23T09:46:05.591Z,86.23
2018-01-23T09:48:35.804Z,86.03
2018-01-23T09:51:06.594Z,86.91
2018-01-23T09:53:36.573Z,86.68
2018-01-23T09:56:06.373Z,86.73
2018-01-23T09:58:35.781Z,85.63
2018-01-23T10:01:06.430Z,85.86
2018-01-23T10:03:50.890Z,87.22
2018-01-23T10:06:20.256Z,86.35
2018-01-23T10:08:50.054Z,86.98
2018-01-23T10:11:19.726Z,86.39
2018-01-23T10:14:10.046Z,86.91
2018-01-23T10:16:39.689Z,87.20
2018-01-23T10:19:11.385Z,87.34
2018-01-23T10:21:40.744Z,87.08
2018-01-23T10:24:10.681Z,87.96
2018-01-23T10:26:48.579Z,87.86
2018-01-23T10:29:25.178Z,88.31
2018-01-23T10:32:08.242Z,88.24
2018-01-23T10:34:38.659Z,87.55
2018-01-23T10:37:07.990Z,87.50
2018-01-23T10:39:40.785Z,87.00
2018-01-23T10:42:10.693Z,86.18
2018-01-23T10:44:40.097Z,86.60
2018-01-23T10:47:09.421Z,85.69
2018-01-23T10:49:39.791Z,85.83
2018-01-23T10:52:09.683Z,86.59
2018-01-23T10:54:39.302Z,87.44
2018-01-23T10:57:32.825Z,87.72
2018-01-23T11:00:14.373Z,87.59
2018-01-23T11:03:03.638Z,88.18
2018-01-23T11:05:56.895Z,88.71
2018-01-23T11:08:30.605Z,88.69
2018-01-23T11:11:09.253Z,88.38
2018-01-23T11:13:52.874Z,88.24
2018-01-23T11:16:32.520Z,88.83
2018-01-23T11:19:07.122Z,88.48
2018-01-23T11:21:37.898Z,88.07
2018-01-23T11:24:08.230Z,88.81
2018-01-23T11:26:43.248Z,87.52
2018-01-23T11:29:13.243Z,87.83
2018-01-23T11:31:46.227Z,88.22
2018-01-23T11:34:16.472Z,86.94
2018-01-23T11:36:47.135Z,87.58
2018-01-23T11:39:17.111Z,87.53
2018-01-23T11:41:57.034Z,86.53
2018-01-23T11:44:30.133Z,86.91
2018-01-23T11:47:00.378Z,85.48
2018-01-23T11:49:30.888Z,87.34
2018-01-23T11:52:00.552Z,88.16
2018-01-23T11:54:30.694Z,88.23
2018-01-23T11:57:00.434Z,87.56
2018-01-23T11:59:32.606Z,87.36
2018-01-23T12:02:02.089Z,87.98
2018-01-23T12:04:32.525Z,87.40
2018-01-23T12:07:02.820Z,87.47
2018-01-23T12:09:33.476Z,89.31
2018-01-23T12:12:02.819Z,88.91
2018-01-23T12:14:32.714Z,88.84
2018-01-23T12:17:02.354Z,88.09
2018-01-23T12:19:33.493Z,88.73
2018-01-23T12:22:05.761Z,88.31
2018-01-23T12:24:38.554Z,88.08
2018-01-23T12:27:08.998Z,87.56
2018-01-23T12:29:38.622Z,87.20
2018-01-23T12:32:08.748Z,86.40
2018-01-23T12:34:38.585Z,86.32
2018-01-23T12:37:17.378Z,84.74
2018-01-23T12:39:47.635Z,86.06
2018-01-23T12:42:17.898Z,84.04
2018-01-23T12:44:51.145Z,85.26
2018-01-23T12:47:20.873Z,84.85
2018-01-23T12:49:50.469Z,84.43
2018-01-23T12:52:20.058Z,84.75
2018-01-23T12:54:51.585Z,84.20
2018-01-23T12:57:22.644Z,84.62
2018-01-23T12:59:56.015Z,84.06
2018-01-23T13:02:27.901Z,83.38
2018-01-23T13:05:01.013Z,84.39
2018-01-23T13:07:36.915Z,83.34
2018-01-23T13:10:09.143Z,83.83
2018-01-23T13:12:40.429Z,82.38
2018-01-23T13:15:10.473Z,83.95
2018-01-23T13:17:50.533Z,82.42
2018-01-23T13:20:22.042Z,83.31
2018-01-23T13:22:51.880Z,83.01
2018-01-23T13:25:21.282Z,82.23
2018-01-23T13:27:51.194Z,82.77
2018-01-23T13:30:23.696Z,82.38
2018-01-23T13:32:56.122Z,82.80
2018-01-23T13:35:34.826Z,82.94
2018-01-23T13:38:04.898Z,82.23
2018-01-23T13:40:39.342Z,83.69
2018-01-23T13:43:08.973Z,83.23
2018-01-23T13:45:39.454Z,83.09
2018-01-23T13:48:08.991Z,81.48
2018-01-23T13:50:38.555Z,82.01
2018-01-23T13:53:08.985Z,81.77
2018-01-23T13:55:41.097Z,81.90
2018-01-23T13:58:11.918Z,81.68
2018-01-23T14:00:41.653Z,81.52
2018-01-23T14:03:12.289Z,82.08
2018-01-23T14:05:45.774Z,81.54
2018-01-23T14:08:16.121Z,81.59
2018-01-23T14:10:48.479Z,81.78
2018-01-23T14:13:21.090Z,80.64
2018-01-23T14:15:55.087Z,80.39
2018-01-23T14:18:24.950Z,80.47
2018-01-23T14:20:55.631Z,80.12
2018-01-23T14:23:30.009Z,79.03
2018-01-23T14:26:01.815Z,80.18
2018-01-23T14:28:31.323Z,81.56
2018-01-23T14:31:16.382Z,79.40
2018-01-23T14:33:45.742Z,78.98
2018-01-23T14:36:15.198Z,79.26
2018-01-23T14:38:44.953Z,78.42
2018-01-23T14:41:14.375Z,78.13
2018-01-23T14:43:43.806Z,78.96
2018-01-23T14:46:13.629Z,79.16
2018-01-23T14:48:43.138Z,78.44
2018-01-23T14:51:12.658Z,78.76
2018-01-23T14:53:42.286Z,79.40
2018-01-23T14:56:11.933Z,79.31
2018-01-23T14:58:41.355Z,78.45
2018-01-23T15:01:11.626Z,78.95
2018-01-23T15:03:41.082Z,79.55
2018-01-23T15:06:11.285Z,79.28
2018-01-23T15:08:41.301Z,78.82
2018-01-23T15:11:10.777Z,79.70
2018-01-23T15:13:40.102Z,80.37
2018-01-23T15:16:10.058Z,80.14
2018-01-23T15:18:39.978Z,80.49
2018-01-23T15:21:09.434Z,79.81
2018-01-23T15:23:39.953Z,79.43
2018-01-23T15:26:09.824Z,80.09
2018-01-23T15:28:39.647Z,80.24
2018-01-23T15:31:09.424Z,80.31
2018-01-23T15:33:43.213Z,79.96
2018-01-23T15:36:12.655Z,80.44
2018-01-23T15:38:42.645Z,79.92
2018-01-23T15:41:11.951Z,80.03
2018-01-23T15:43:41.635Z,79.96
2018-01-23T15:46:11.825Z,79.87
2018-01-23T15:48:41.989Z,79.19
2018-01-23T15:51:11.941Z,79.28
2018-01-23T15:53:41.678Z,79.11
2018-01-23T15:56:11.097Z,79.14
2018-01-23T15:58:40.962Z,78.27
2018-01-23T16:01:11.078Z,78.79
2018-01-23T16:03:41.113Z,78.61
2018-01-23T16:06:10.890Z,77.36
2018-01-23T16:08:41.640Z,78.75
2018-01-23T16:11:12.463Z,78.08
2018-01-23T16:13:42.053Z,77.66
2018-01-23T16:16:13.891Z,77.80
2018-01-23T16:18:45.847Z,78.31
2018-01-23T16:21:18.828Z,78.50
2018-01-23T16:23:50.736Z,79.37
2018-01-23T16:26:22.342Z,78.46
2018-01-23T16:28:54.446Z,78.04
2018-01-23T16:31:24.738Z,78.47
2018-01-23T16:33:54.550Z,78.53
2018-01-23T16:36:24.329Z,77.42
2018-01-23T16:38:54.194Z,77.32
2018-01-23T16:41:23.657Z,77.76
2018-01-23T16:43:53.720Z,77.75
2018-01-23T16:46:23.020Z,78.97
2018-01-23T16:48:53.188Z,78.27
2018-01-23T16:51:22.610Z,78.10
2018-01-23T16:53:52.977Z,79.61
2018-01-23T16:56:22.785Z,79.92
2018-01-23T16:58:52.817Z,79.52
2018-01-23T17:01:22.170Z,79.59
2018-01-23T17:03:52.753Z,79.71
2018-01-23T17:06:23.362Z,80.13
2018-01-23T17:08:52.941Z,79.53
2018-01-23T17:11:22.362Z,80.07
2018-01-23T17:13:52.721Z,79.10
2018-01-23T17:16:23.023Z,79.38
2018-01-23T17:18:52.480Z,79.05
2018-01-23T17:21:27.566Z,79.51
2018-01-23T17:23:57.705Z,81.36
2018-01-23T17:26:28.969Z,81.04
2018-01-23T17:28:58.735Z,80.44
2018-01-23T17:31:28.729Z,80.43
2018-01-23T17:34:00.009Z,80.08
2018-01-23T17:36:30.459Z,78.81
2018-01-23T17:39:00.380Z,78.96
2018-01-23T17:41:30.904Z,79.03
2018-01-23T17:44:11.352Z,78.79
2018-01-23T17:46:41.511Z,78.79
2018-01-23T17:49:11.192Z,79.46
2018-01-23T17:51:40.550Z,79.60
2018-01-23T17:54:11.714Z,79.11
2018-01-23T17:56:43.099Z,79.29
2018-01-23T17:59:13.050Z,78.82
2018-01-23T18:01:43.071Z,79.17
2018-01-23T18:04:12.875Z,79.67
2018-01-23T18:06:43.126Z,80.24
2018-01-23T18:09:13.163Z,80.08
2018-01-23T18:11:42.662Z,79.66
2018-01-23T18:14:12.177Z,79.50
2018-01-23T18:16:42.058Z,79.69
2018-01-23T18:19:11.469Z,79.74
2018-01-23T18:21:41.095Z,79.67
2018-01-23T18:24:10.849Z,79.13
2018-01-23T18:26:40.658Z,79.19
2018-01-23T18:29:10.083Z,79.34
2018-01-23T18:31:40.521Z,78.95
2018-01-23T18:34:10.234Z,79.68
2018-01-23T18:36:40.231Z,79.85
2018-01-23T18:39:11.057Z,79.74
2018-01-23T18:41:43.698Z,80.36
2018-01-23T18:44:14.451Z,80.63
2018-01-23T18:46:45.068Z,80.22
2018-01-23T18:49:15.325Z,79.98
2018-01-23T18:51:48.890Z,79.80
2018-01-23T18:54:19.415Z,79.87
2018-01-23T18:56:53.967Z,80.26
2018-01-23T18:59:24.907Z,80.71
2018-01-23T19:02:02.555Z,80.42
2018-01-23T19:04:32.854Z,80.86
2018-01-23T19:07:02.704Z,80.56
2018-01-23T19:09:33.112Z,80.85
2018-01-23T19:12:03.551Z,81.46
2018-01-23T19:14:33.704Z,81.44
2018-01-23T19:17:04.124Z,80.92
2018-01-23T19:19:34.197Z,81.00
2018-01-23T19:22:03.778Z,81.00
2018-01-23T19:24:33.503Z,81.16
2018-01-23T19:27:03.307Z,81.26
2018-01-23T19:31:54.493Z,80.79
2018-01-23T19:34:24.547Z,80.82
2018-01-23T19:36:55.212Z,80.75
2018-01-23T19:39:25.095Z,80.26
2018-01-23T19:41:55.618Z,81.26
2018-01-23T19:44:25.886Z,80.83
2018-01-23T19:46:56.062Z,79.92
2018-01-23T19:49:26.874Z,80.47
2018-01-23T19:51:57.024Z,80.60
2018-01-23T19:54:27.274Z,81.25
2018-01-23T19:56:57.298Z,80.82
2018-01-23T19:59:30.941Z,81.15
2018-01-23T20:02:00.529Z,81.89
2018-01-23T20:04:32.389Z,81.63
2018-01-23T20:07:03.690Z,81.51
2018-01-23T20:09:33.734Z,81.37
2018-01-23T20:12:03.838Z,80.91
2018-01-23T20:14:34.318Z,80.82
2018-01-23T20:17:03.851Z,81.44
2018-01-23T20:19:35.870Z,81.01
2018-01-23T20:22:05.906Z,82.16
2018-01-23T20:24:43.838Z,81.87
2018-01-23T20:27:13.787Z,82.09
2018-01-23T20:29:51.358Z,81.79
2018-01-23T20:32:21.990Z,82.13
2018-01-23T20:34:52.730Z,83.04
2018-01-23T20:37:26.859Z,83.78
2018-01-23T20:40:01.900Z,84.73
2018-01-23T20:42:32.356Z,84.79
2018-01-23T20:45:03.019Z,84.92
2018-01-23T20:47:33.661Z,85.19
2018-01-23T20:50:03.962Z,85.56
2018-01-23T20:52:34.368Z,86.05
2018-01-23T20:55:04.437Z,85.71
2018-01-23T20:57:34.303Z,86.23
2018-01-23T21:00:04.490Z,86.17
2018-01-23T21:02:36.207Z,85.47
2018-01-23T21:05:13.347Z,85.58
2018-01-23T21:07:48.676Z,84.97
2018-01-23T21:10:18.253Z,85.44
2018-01-23T21:12:48.553Z,85.49
2018-01-23T21:15:20.266Z,85.37
2018-01-23T21:17:49.642Z,85.30
2018-01-23T21:20:20.282Z,85.35
2018-01-23T21:22:50.049Z,85.25
2018-01-23T21:25:19.533Z,85.90
2018-01-23T21:27:49.155Z,84.97
2018-01-23T21:30:19.034Z,84.20
2018-01-23T21:32:48.583Z,84.34
2018-01-23T21:35:18.313Z,84.50
2018-01-23T21:37:47.719Z,84.61
2018-01-23T21:40:17.085Z,84.91
2018-01-23T21:42:47.858Z,84.38
2018-01-23T21:45:17.906Z,84.53
2018-01-23T21:47:48.294Z,84.41
2018-01-23T21:50:17.944Z,84.02
2018-01-23T21:52:47.485Z,84.13
2018-01-23T21:55:17.078Z,83.81
2018-01-23T21:57:46.817Z,83.70
2018-01-23T22:00:16.220Z,83.94
2018-01-23T22:02:45.842Z,84.57
2018-01-23T22:05:15.997Z,83.86
2018-01-23T22:07:45.337Z,83.55
2018-01-23T22:10:15.060Z,83.60
2018-01-23T22:12:44.705Z,82.97
2018-01-23T22:15:14.385Z,83.12
2018-01-23T22:17:44.217Z,83.99
2018-01-23T22:20:14.344Z,83.26
2018-01-23T22:22:43.859Z,84.00
2018-01-23T22:25:13.438Z,84.52
2018-01-23T22:27:43.172Z,84.19
2018-01-23T22:30:12.654Z,84.86
2018-01-23T22:32:42.175Z,84.63
2018-01-23T22:35:12.400Z,84.97
2018-01-23T22:37:42.201Z,85.15
2018-01-23T22:40:12.101Z,85.64
2018-01-23T22:42:42.020Z,85.50
2018-01-23T22:45:11.554Z,85.35
2018-01-23T22:47:41.202Z,84.99
2018-01-23T22:50:10.999Z,84.40
2018-01-23T22:52:40.587Z,84.74
2018-01-23T22:55:10.098Z,85.22
2018-01-23T22:57:39.870Z,85.27
2018-01-23T23:00:09.339Z,83.93
2018-01-23T23:02:38.765Z,84.67
2018-01-23T23:05:09.027Z,84.96
2018-01-23T23:07:38.406Z,84.22
2018-01-23T23:10:07.794Z,84.10
2018-01-23T23:12:38.009Z,84.41
2018-01-23T23:15:07.355Z,84.06
2018-01-23T23:17:36.892Z,84.38
2018-01-23T23:20:06.506Z,84.72
2018-01-23T23:22:36.753Z,85.26
2018-01-23T23:25:06.154Z,85.31
2018-01-23T23:27:35.846Z,86.30
2018-01-23T23:30:05.331Z,85.10
2018-01-23T23:32:34.755Z,84.18
2018-01-23T23:35:04.424Z,83.84
2018-01-23T23:37:33.906Z,84.76
2018-01-23T23:40:03.473Z,85.63
2018-01-23T23:42:33.157Z,85.32
2018-01-23T23:45:02.767Z,85.43
2018-01-23T23:47:32.229Z,85.02
2018-01-23T23:50:02.137Z,86.20
2018-01-23T23:52:31.557Z,86.43
2018-01-23T23:55:01.013Z,88.06
2018-01-23T23:57:30.744Z,88.05
